• Join FlightAware (Why Join?)
  • Login
  • US Flag 
02:28PM EDT


 

Airport Tracker/Info


-or-


 

Live Flight TrackerFlight Track Log ✈ SKQ45 ✈ 26-Apr-2013 ✈ KPAH - KSTL

Flight Track Log - Related Links

Times and Time Zones

All times are in EDT time to prevent confusion due to time zone crossing. See the SKQ45 flight status page for this flight to view local times or setup timezone preferences in your user account.

Time Position Orientation Groundspeed Altitude Reporting Facility
EDT Latitude Longitude Course Direction KTS MPH feet Rate Location/Type
10:47PM 37.0842 -88.7603 307° West 248 285 4,300  Level Memphis Center
10:48PM 37.1139 -88.8092 307° West 169 194 5,300 960 Climbing Memphis Center
10:49PM 37.1478 -88.8631 308° West 181 208 6,300 960 Climbing Memphis Center
10:50PM 37.1881 -88.9144 315° West 192 221 7,300 900 Climbing Memphis Center
10:51PM 37.2219 -88.9711 307° West 197 227 8,200 900 Climbing Memphis Center
10:52PM 37.2517 -89.0228 306° West 197 227 9,200 540 Climbing Memphis Center
10:55PM 37.3283 -89.1386 310° West 207 238 10,000 240 Climbing Kansas City Center
10:56PM 37.3822 -89.1808 328° Northwest 224 258 10,000  Level Kansas City Center
10:57PM 37.4336 -89.2256 325° Northwest 225 259 10,000  Level Kansas City Center
10:58PM 37.4858 -89.2686 327° Northwest 225 259 10,000  Level Kansas City Center
10:59PM 37.5378 -89.3128 326° Northwest 226 260 10,000  Level Kansas City Center
11:00PM 37.5908 -89.3589 325° Northwest 230 265 10,000  Level Kansas City Center
11:01PM 37.6475 -89.4094 325° Northwest 227 261 10,000  Level Kansas City Center
11:02PM 37.6994 -89.4533 326° Northwest 225 259 10,000 -60 Level Kansas City Center
11:03PM 37.7517 -89.4972 326° Northwest 225 259 9,900 -60 Descending Kansas City Center
11:04PM 37.8033 -89.5419 326° Northwest 225 259 9,900  Level Kansas City Center
11:05PM 37.8567 -89.5875 326° Northwest 221 254 9,900  Level Kansas City Center
11:06PM 37.9128 -89.6356 326° Northwest 224 258 9,900  Level Kansas City Center
11:07PM 37.9642 -89.6800 326° Northwest 225 259 9,900  Level Kansas City Center
11:08PM 38.0144 -89.7228 326° Northwest 219 252 9,900  Level Kansas City Center
11:09PM 38.0642 -89.7669 325° Northwest 218 251 9,900  Level Kansas City Center
11:10PM 38.1142 -89.8100 326° Northwest 218 251 9,900  Level Kansas City Center
11:11PM 38.1622 -89.8519 326° Northwest 211 243 10,000  Climbing Kansas City Center
11:12PM 38.2067 -89.8917 325° Northwest 184 212 10,000 -240 Level Kansas City Center
11:13PM 38.2531 -89.9308 326° Northwest 198 228 9,600 -540 Descending Kansas City Center
11:14PM 38.3050 -89.9800 323° Northwest 228 262 9,000 -540 Descending Kansas City Center
11:15PM 38.3553 -90.0383 318° Northwest 241 277 8,600 -420 Descending Kansas City Center
11:16PM 38.4014 -90.0892 319° Northwest 249 287 8,200 -480 Descending Kansas City Center
11:17PM 38.4558 -90.1483 320° Northwest 254 292 7,700 -600 Descending Kansas City Center
11:18PM 38.5211 -90.2203 319° Northwest 257 296 7,100 -600 Descending Kansas City Center
11:19PM 38.5678 -90.2731 319° Northwest 255 293 6,600 -540 Descending Kansas City Center
11:20PM 38.6203 -90.3306 319° Northwest 251 289 6,000 -780 Descending Kansas City Center
11:21PM 38.6600 -90.4047 304° West 254 292 5,100 -1,080 Descending Kansas City Center
11:22PM 38.6989 -90.4819 303° West 252 290 3,900 -1,200 Descending Kansas City Center
11:23PM 38.7522 -90.5039 342° North 231 266 2,700 -1,020 Descending Kansas City Center
11:24PM 38.7822 -90.4503 54° Northeast 206 237 1,900 -780 Descending Kansas City Center
11:25PM 38.7672 -90.3967 110° East 174 200 1,200 -660 Descending Kansas City Center
11:26PM 38.7489 -90.3594 122° Southeast 144 166 600 -600 Descending Kansas City Center
11:28PM 38.7487 -90.3700 345° North  Level Estimated
11:35PM 38.7487 -90.3700 345° North  Level Estimated